Time;durP1;ratioP1;P1;durP2;ratioP2;P2;SDS_P1;SDS_P2;PMS_P1;PMS_P2;Temp;Humidity;BMP_temperature;BMP_pressure;BME280_temperature;BME280_humidity;BME280_pressure;Samples;Min_cycle;Max_cycle;Signal;HPM_P1;HPM_P2
2022/11/12 00:00:52;;;;;;;42.47;9.37;;;7.90;27.60;;;;;;5049156;28;20667;-75
2022/11/12 00:03:19;;;;;;;44.77;9.60;;;7.90;26.60;;;;;;5045484;28;20542;-75
2022/11/12 00:05:45;;;;;;;41.40;9.27;;;7.90;30.30;;;;;;5049944;28;20498;-74
2022/11/12 00:08:11;;;;;;;33.27;8.80;;;8.00;36.80;;;;;;5044303;28;20427;-75
2022/11/12 00:10:37;;;;;;;41.43;8.60;;;8.10;33.30;;;;;;5042499;28;20866;-75
2022/11/12 00:13:02;;;;;;;26.10;8.60;;;8.10;26.40;;;;;;5051174;28;20501;-75
2022/11/12 00:15:28;;;;;;;36.93;9.10;;;8.10;31.90;;;;;;5047461;28;20269;-75
2022/11/12 00:17:54;;;;;;;29.73;8.70;;;8.10;27.20;;;;;;5050385;28;20248;-75
2022/11/12 00:20:20;;;;;;;25.90;9.00;;;8.10;29.70;;;;;;5043457;28;20592;-75
2022/11/12 00:22:45;;;;;;;29.87;9.17;;;8.10;26.50;;;;;;5041910;28;20702;-75
2022/11/12 00:25:11;;;;;;;14.27;8.80;;;8.10;27.60;;;;;;5048173;28;20439;-75
2022/11/12 00:27:36;;;;;;;48.73;9.90;;;8.20;33.40;;;;;;5049992;28;20177;-75
2022/11/12 00:30:03;;;;;;;19.50;8.73;;;8.20;30.00;;;;;;5044940;28;20181;-75
2022/11/12 00:32:28;;;;;;;22.33;8.90;;;8.30;30.00;;;;;;5050762;28;20287;-75
2022/11/12 00:34:54;;;;;;;22.23;9.10;;;8.30;34.10;;;;;;5046437;28;21275;-75
2022/11/12 00:37:22;;;;;;;27.17;9.50;;;8.40;29.60;;;;;;5045252;28;20184;-75
2022/11/12 00:39:47;;;;;;;44.23;10.07;;;8.40;31.80;;;;;;5037916;28;20514;-75
2022/11/12 00:42:13;;;;;;;26.53;8.70;;;8.40;29.40;;;;;;5047771;28;20891;-74
2022/11/12 00:44:39;;;;;;;21.00;9.23;;;8.40;31.00;;;;;;5049290;28;20231;-75
2022/11/12 00:47:04;;;;;;;35.67;10.70;;;8.40;33.40;;;;;;5048571;28;20203;-75
2022/11/12 00:49:30;;;;;;;30.60;9.57;;;8.50;29.90;;;;;;5040252;28;20196;-75
2022/11/12 00:51:55;;;;;;;64.50;10.27;;;8.50;30.10;;;;;;5049756;28;20177;-75
2022/11/12 00:54:21;;;;;;;36.03;9.70;;;8.40;37.50;;;;;;5046630;28;20209;-75
2022/11/12 00:56:47;;;;;;;38.10;9.87;;;8.40;35.10;;;;;;5037397;28;20181;-75
2022/11/12 00:59:13;;;;;;;25.03;9.33;;;8.40;37.50;;;;;;5043750;28;20177;-75
2022/11/12 01:01:39;;;;;;;36.00;9.93;;;8.40;37.70;;;;;;5050125;28;20416;-75
2022/11/12 01:04:04;;;;;;;38.53;9.47;;;8.40;37.40;;;;;;5045414;28;20567;-75
2022/11/12 01:06:30;;;;;;;39.40;10.20;;;8.40;37.50;;;;;;5047332;28;20185;-75
2022/11/12 01:08:56;;;;;;;33.50;9.80;;;8.50;37.50;;;;;;5045128;28;20611;-75
2022/11/12 01:11:27;;;;;;;54.97;11.50;;;8.50;35.70;;;;;;5044214;28;20663;-75
2022/11/12 01:13:58;;;;;;;31.57;9.70;;;8.50;36.50;;;;;;5043165;28;20217;-75
2022/11/12 01:16:27;;;;;;;55.30;10.80;;;8.50;37.60;;;;;;5049664;28;20424;-75
2022/11/12 01:18:55;;;;;;;31.90;10.60;;;8.60;37.70;;;;;;5039582;28;20417;-75
2022/11/12 01:21:22;;;;;;;47.80;10.93;;;8.60;37.80;;;;;;5048876;28;20423;-75
2022/11/12 01:23:48;;;;;;;44.80;11.47;;;8.40;37.60;;;;;;5042426;28;20871;-75
2022/11/12 01:26:15;;;;;;;35.60;10.27;;;8.40;37.60;;;;;;5044765;28;20433;-76
2022/11/12 01:28:42;;;;;;;50.23;10.63;;;8.50;37.60;;;;;;5030921;28;20668;-76
2022/11/12 01:31:18;;;;;;;37.73;11.00;;;8.50;37.70;;;;;;5049433;28;20415;-76
2022/11/12 01:33:47;;;;;;;42.93;10.50;;;8.50;37.60;;;;;;5044010;28;20516;-76
2022/11/12 01:36:14;;;;;;;44.77;10.80;;;8.50;37.60;;;;;;5048642;28;20427;-76
2022/11/12 01:38:42;;;;;;;102.10;13.40;;;8.50;37.60;;;;;;5041918;28;20486;-76
2022/11/12 01:41:11;;;;;;;65.80;11.20;;;8.50;37.70;;;;;;5036679;28;20945;-76
2022/11/12 01:43:36;;;;;;;81.27;11.73;;;8.50;37.60;;;;;;5044629;28;20468;-76
2022/11/12 01:46:06;;;;;;;56.73;12.17;;;8.50;40.20;;;;;;5049074;28;20435;-76
2022/11/12 01:48:37;;;;;;;105.97;12.97;;;8.40;37.60;;;;;;5045903;28;20191;-76
2022/11/12 01:51:03;;;;;;;48.63;11.20;;;8.50;37.60;;;;;;5040751;28;20767;-75
2022/11/12 01:53:34;;;;;;;55.83;10.77;;;8.60;37.90;;;;;;5047190;28;20540;-76
2022/11/12 01:56:02;;;;;;;31.03;10.10;;;8.70;37.80;;;;;;5041313;28;20447;-76
2022/11/12 01:58:30;;;;;;;40.53;10.57;;;8.70;37.80;;;;;;5041481;28;20460;-75
2022/11/12 02:00:56;;;;;;;36.87;11.93;;;8.80;37.90;;;;;;5048805;28;20858;-76
2022/11/12 02:03:23;;;;;;;55.97;11.10;;;8.80;37.80;;;;;;5044857;28;20486;-76
2022/11/12 02:05:55;;;;;;;78.17;11.23;;;8.70;37.90;;;;;;5047145;28;20983;-76
2022/11/12 02:08:22;;;;;;;37.60;10.63;;;7.00;36.50;;;;;;5041151;28;20432;-76
2022/11/12 02:10:49;;;;;;;37.10;11.10;;;8.70;37.90;;;;;;5041364;28;21080;-76
2022/11/12 02:15:59;;;;;;;63.80;11.97;;;8.70;37.90;;;;;;5046737;28;20495;-76
2022/11/12 02:18:24;;;;;;;56.23;12.20;;;8.70;38.10;;;;;;5042811;28;20530;-76
2022/11/12 02:20:58;;;;;;;37.43;11.93;;;8.70;44.80;;;;;;5048097;28;20631;-76
2022/11/12 02:23:23;;;;;;;69.03;11.63;;;8.70;41.90;;;;;;5043111;28;20201;-76
2022/11/12 02:25:49;;;;;;;56.70;12.07;;;8.60;38.10;;;;;;5049513;28;20456;-76
2022/11/12 02:28:16;;;;;;;47.57;11.43;;;8.60;46.30;;;;;;5043662;28;20189;-76
2022/11/12 02:30:45;;;;;;;61.17;11.50;;;8.60;46.30;;;;;;5049190;28;20181;-76
2022/11/12 02:33:10;;;;;;;57.10;12.20;;;8.70;43.80;;;;;;5043056;28;20862;-76
2022/11/12 02:35:36;;;;;;;63.00;12.07;;;8.70;38.10;;;;;;5046799;28;20415;-76
2022/11/12 02:38:03;;;;;;;47.83;12.00;;;8.10;40.80;;;;;;5044422;28;20254;-76
2022/11/12 02:40:29;;;;;;;38.53;11.73;;;8.60;47.10;;;;;;5040410;28;20444;-76
2022/11/12 02:42:54;;;;;;;50.13;12.63;;;8.60;47.20;;;;;;5047262;28;20589;-76
2022/11/12 02:45:20;;;;;;;41.93;11.40;;;8.60;49.80;;;;;;5041306;28;20197;-76
2022/11/12 02:47:46;;;;;;;57.03;17.10;;;8.70;50.20;;;;;;5046977;28;20192;-76
2022/11/12 02:50:11;;;;;;;48.13;12.87;;;8.70;50.20;;;;;;5044238;28;20197;-76
2022/11/12 02:52:38;;;;;;;54.53;12.70;;;8.70;53.60;;;;;;5049513;28;20671;-76
2022/11/12 02:55:06;;;;;;;39.03;13.13;;;8.70;51.10;;;;;;5049584;28;20664;-76
2022/11/12 02:57:32;;;;;;;44.67;13.33;;;8.80;53.80;;;;;;5052070;28;20419;-76
2022/11/12 02:59:57;;;;;;;50.07;12.27;;;8.80;55.30;;;;;;5050880;28;20481;-76
2022/11/12 03:02:23;;;;;;;32.93;10.63;;;8.80;51.70;;;;;;5045326;28;20277;-76
2022/11/12 03:04:48;;;;;;;36.30;11.70;;;8.80;55.80;;;;;;5045824;28;20252;-76
2022/11/12 03:07:14;;;;;;;40.67;11.90;;;8.80;55.10;;;;;;5046196;28;20560;-76
2022/11/12 03:09:39;;;;;;;22.20;9.83;;;8.90;55.50;;;;;;5044421;28;20264;-76
2022/11/12 03:12:05;;;;;;;27.03;10.60;;;8.90;55.60;;;;;;5051347;28;20185;-76
2022/11/12 03:14:30;;;;;;;30.50;11.57;;;8.90;52.60;;;;;;5035836;28;20576;-76
2022/11/12 03:16:56;;;;;;;21.90;10.70;;;8.90;48.60;;;;;;5050610;28;20636;-76
2022/11/12 03:19:21;;;;;;;24.07;10.03;;;8.90;50.00;;;;;;5046686;28;20186;-76
2022/11/12 03:21:47;;;;;;;30.83;10.47;;;8.90;48.10;;;;;;5050121;28;20568;-76
2022/11/12 03:24:13;;;;;;;34.83;9.93;;;8.90;40.40;;;;;;5048503;28;20236;-76
2022/11/12 03:26:38;;;;;;;24.10;9.83;;;8.90;38.10;;;;;;5049303;28;20186;-76
2022/11/12 03:29:04;;;;;;;19.50;10.20;;;8.90;38.30;;;;;;5050383;28;20177;-76
2022/11/12 03:31:29;;;;;;;22.47;10.13;;;8.90;38.20;;;;;;5047566;28;20181;-76
2022/11/12 03:33:55;;;;;;;25.40;10.60;;;8.80;38.10;;;;;;5050679;28;20205;-76
2022/11/12 03:36:20;;;;;;;17.77;9.80;;;8.80;44.60;;;;;;5048067;28;20204;-76
2022/11/12 03:38:46;;;;;;;20.10;9.47;;;8.80;42.40;;;;;;5051065;28;20509;-75
2022/11/12 03:41:12;;;;;;;19.23;9.70;;;8.70;38.10;;;;;;5047050;28;20177;-76
2022/11/12 03:43:37;;;;;;;17.57;10.10;;;8.70;38.00;;;;;;5046206;28;20201;-76
2022/11/12 03:46:03;;;;;;;14.13;9.30;;;8.60;44.40;;;;;;5051678;28;20189;-76
2022/11/12 03:48:28;;;;;;;24.83;9.70;;;8.60;45.70;;;;;;5047984;28;20561;-76
2022/11/12 03:50:57;;;;;;;21.00;9.67;;;8.60;42.30;;;;;;5050502;28;20177;-75
2022/11/12 03:53:23;;;;;;;23.50;9.93;;;8.60;35.60;;;;;;5048394;28;20201;-76
2022/11/12 03:55:48;;;;;;;25.70;10.43;;;8.60;44.40;;;;;;5050250;28;20589;-76
2022/11/12 03:58:14;;;;;;;22.07;10.20;;;8.60;46.50;;;;;;5048895;28;20203;-75
2022/11/12 04:00:39;;;;;;;19.93;10.10;;;8.60;50.30;;;;;;5048306;28;20230;-76
2022/11/12 04:03:05;;;;;;;23.90;10.50;;;8.70;48.10;;;;;;5048123;28;20204;-76
2022/11/12 04:08:35;;;;;;;27.90;10.57;;;8.70;46.60;;;;;;5051322;28;20184;-77
2022/11/12 04:11:07;;;;;;;22.13;10.60;;;8.70;45.70;;;;;;5041190;28;20435;-76
2022/11/12 04:13:33;;;;;;;19.97;10.47;;;8.60;47.90;;;;;;5049658;28;20497;-76
2022/11/12 04:21:49;;;;;;;24.17;11.03;;;8.60;37.90;;;;;;5049974;28;20434;-76
2022/11/12 04:26:59;;;;;;;28.27;12.50;;;8.50;51.80;;;;;;5030668;28;20500;-76
2022/11/12 04:32:09;;;;;;;30.83;12.80;;;8.50;50.70;;;;;;5042277;28;20239;-76
2022/11/12 04:34:35;;;;;;;29.70;12.93;;;8.60;44.90;;;;;;5044850;28;21096;-76
2022/11/12 04:37:05;;;;;;;22.33;11.23;;;8.60;41.70;;;;;;5049097;28;20183;-76
2022/11/12 04:39:30;;;;;;;24.87;12.20;;;8.70;38.00;;;;;;5039256;28;20182;-76
2022/11/12 04:47:33;;;;;;;31.00;12.00;;;8.70;38.00;;;;;;5046219;28;20451;-76
2022/11/12 04:49:59;;;;;;;18.97;11.30;;;8.80;37.90;;;;;;5044330;28;20724;-76
2022/11/12 04:52:27;;;;;;;21.00;11.70;;;8.80;37.90;;;;;;5046417;28;20800;-76
2022/11/12 04:54:53;;;;;;;28.07;11.43;;;8.80;38.00;;;;;;5049257;28;20428;-76
2022/11/12 04:57:18;;;;;;;17.50;10.77;;;8.80;37.90;;;;;;5047834;28;20416;-76
2022/11/12 04:59:44;;;;;;;44.03;11.53;;;8.80;37.90;;;;;;5048236;28;20166;-76
2022/11/12 05:02:09;;;;;;;22.70;11.00;;;8.70;37.80;;;;;;5050257;28;20227;-76
2022/11/12 05:04:35;;;;;;;30.93;11.40;;;8.60;40.30;;;;;;5043496;28;20246;-75
2022/11/12 05:07:01;;;;;;;19.33;8.60;;;8.60;37.80;;;;;;5050413;28;20208;-76
2022/11/12 05:09:27;;;;;;;19.53;7.93;;;8.60;37.70;;;;;;5042951;28;20226;-76
2022/11/12 05:11:56;;;;;;;11.40;6.97;;;8.40;37.50;;;;;;5040768;28;20181;-76
2022/11/12 05:14:23;;;;;;;26.93;7.50;;;8.20;37.30;;;;;;5043944;28;20467;-76
2022/11/12 05:16:49;;;;;;;22.67;7.70;;;8.00;37.20;;;;;;5050139;28;20495;-76
2022/11/12 05:19:14;;;;;;;20.27;7.63;;;7.90;39.80;;;;;;5047391;28;20522;-76
2022/11/12 05:24:24;;;;;;;41.57;8.37;;;8.00;37.40;;;;;;5049825;28;20208;-75
2022/11/12 05:26:50;;;;;;;31.63;7.50;;;8.00;37.30;;;;;;5030149;28;20412;-76
2022/11/12 05:29:16;;;;;;;33.07;8.00;;;8.00;37.30;;;;;;5035444;28;20189;-76
2022/11/12 05:31:41;;;;;;;38.60;8.63;;;8.00;37.20;;;;;;5045381;28;20439;-76
2022/11/12 05:34:07;;;;;;;32.13;8.13;;;8.00;37.10;;;;;;5042361;28;20215;-76
2022/11/12 05:36:33;;;;;;;36.50;8.03;;;7.90;37.10;;;;;;5040398;28;20181;-76
2022/11/12 05:38:58;;;;;;;42.60;8.20;;;7.80;37.00;;;;;;5044340;28;20264;-76
2022/11/12 05:41:24;;;;;;;16.83;8.03;;;7.80;37.10;;;;;;5044559;28;20620;-76
2022/11/12 05:43:49;;;;;;;35.57;8.07;;;7.70;37.00;;;;;;5041542;28;20250;-76
2022/11/12 05:46:15;;;;;;;21.37;7.00;;;7.70;37.20;;;;;;5049777;28;20170;-76
2022/11/12 05:48:41;;;;;;;19.90;7.33;;;7.60;36.90;;;;;;5044976;28;20193;-77
2022/11/12 05:51:06;;;;;;;28.93;7.00;;;7.70;37.10;;;;;;5048108;28;20652;-76
2022/11/12 05:53:32;;;;;;;12.83;6.40;;;7.70;37.00;;;;;;5042989;28;20244;-76
2022/11/12 05:56:01;;;;;;;30.10;6.87;;;7.60;37.10;;;;;;5046590;28;20648;-77
2022/11/12 05:58:27;;;;;;;38.43;7.07;;;7.50;36.80;;;;;;5049898;28;20173;-76
2022/11/12 06:00:53;;;;;;;45.10;7.07;;;7.40;36.40;;;;;;5042367;28;20440;-75
2022/11/12 06:03:18;;;;;;;38.27;6.87;;;7.40;36.70;;;;;;5049861;28;20189;-76
2022/11/12 06:05:44;;;;;;;14.97;5.80;;;7.30;36.60;;;;;;5042992;28;20180;-76
2022/11/12 06:08:09;;;;;;;23.23;6.57;;;7.20;36.50;;;;;;5049503;28;20204;-76
2022/11/12 06:10:35;;;;;;;17.13;6.10;;;7.20;36.60;;;;;;5045849;28;20195;-76
2022/11/12 06:13:00;;;;;;;20.40;6.00;;;7.20;36.50;;;;;;5041577;28;20216;-76
2022/11/12 06:15:26;;;;;;;16.87;5.40;;;7.10;36.50;;;;;;5046818;28;20177;-76
2022/11/12 06:17:53;;;;;;;24.77;5.90;;;7.10;36.40;;;;;;5041958;28;20237;-76
2022/11/12 06:20:19;;;;;;;18.73;6.10;;;7.20;36.60;;;;;;5048499;28;20169;-76
2022/11/12 06:22:45;;;;;;;34.23;7.10;;;7.20;34.50;;;;;;5032145;28;20799;-76
2022/11/12 06:25:10;;;;;;;15.83;5.57;;;7.10;36.70;;;;;;5045445;28;20439;-76
2022/11/12 06:27:36;;;;;;;26.90;6.30;;;7.20;36.60;;;;;;5049857;28;20276;-76
2022/11/12 06:30:03;;;;;;;22.33;6.47;;;7.30;36.80;;;;;;5037699;28;20721;-76
2022/11/12 06:32:29;;;;;;;34.67;7.80;;;7.20;36.60;;;;;;5055381;28;20291;-76
2022/11/12 06:34:54;;;;;;;24.33;6.73;;;7.20;34.50;;;;;;5042586;28;20546;-76
2022/11/12 06:37:20;;;;;;;21.67;7.30;;;7.20;37.50;;;;;;5044174;28;20188;-76
2022/11/12 06:39:46;;;;;;;16.00;5.30;;;7.20;36.70;;;;;;5045394;28;20174;-77
2022/11/12 06:42:12;;;;;;;23.67;6.35;;;7.30;36.90;;;;;;5036034;28;20431;-77
2022/11/12 06:44:38;;;;;;;30.00;6.57;;;7.40;42.20;;;;;;5050302;28;20197;-77
2022/11/12 06:47:03;;;;;;;25.30;6.10;;;7.40;36.80;;;;;;5051680;28;20197;-79
2022/11/12 06:49:29;;;;;;;37.87;5.93;;;7.50;37.10;;;;;;5051883;28;20177;-76
2022/11/12 06:51:54;;;;;;;56.00;6.80;;;7.50;36.90;;;;;;5052433;28;20178;-76
2022/11/12 06:54:20;;;;;;;29.70;6.80;;;7.40;36.50;;;;;;5052408;28;20618;-75
2022/11/12 06:56:45;;;;;;;39.23;6.47;;;7.30;36.60;;;;;;5051565;28;20260;-75
2022/11/12 06:59:11;;;;;;;26.40;6.13;;;7.30;36.60;;;;;;5040774;28;20231;-75
2022/11/12 07:01:36;;;;;;;27.93;8.60;;;7.30;36.60;;;;;;5047013;28;20227;-75
2022/11/12 07:04:02;;;;;;;28.00;6.60;;;7.30;36.80;;;;;;5051867;28;20204;-75
2022/11/12 07:06:28;;;;;;;36.23;6.00;;;7.30;36.70;;;;;;5049027;28;20616;-75
2022/11/12 07:08:53;;;;;;;37.97;7.43;;;7.30;36.60;;;;;;5038842;28;20166;-76
2022/11/12 07:11:20;;;;;;;26.67;6.30;;;7.40;36.80;;;;;;5051589;28;20590;-75
2022/11/12 07:13:46;;;;;;;39.97;8.03;;;7.40;36.70;;;;;;5051493;28;20288;-75
2022/11/12 07:16:13;;;;;;;62.80;7.10;;;7.50;36.90;;;;;;5039187;28;20412;-75
2022/11/12 07:18:39;;;;;;;50.37;6.50;;;7.50;36.90;;;;;;5040060;28;20434;-76
2022/11/12 07:21:09;;;;;;;46.70;7.37;;;7.50;36.80;;;;;;5041660;28;20434;-75
2022/11/12 07:23:36;;;;;;;60.97;8.80;;;7.50;35.60;;;;;;5049697;28;20518;-75
2022/11/12 07:26:11;;;;;;;48.43;7.60;;;7.50;36.50;;;;;;5041749;28;20807;-75
2022/11/12 07:28:37;;;;;;;51.77;6.90;;;7.50;36.90;;;;;;5040416;28;20440;-76
2022/11/12 07:31:05;;;;;;;62.03;7.43;;;7.60;36.80;;;;;;5043319;28;20411;-75
2022/11/12 07:33:32;;;;;;;36.27;7.07;;;7.50;36.90;;;;;;5038767;28;20214;-75
2022/11/12 07:35:59;;;;;;;42.10;7.10;;;7.40;36.70;;;;;;5046020;28;20439;-75
2022/11/12 07:38:26;;;;;;;37.43;6.73;;;7.50;37.00;;;;;;5046181;28;20435;-75
2022/11/12 07:40:51;;;;;;;40.20;8.07;;;7.80;37.10;;;;;;5040795;28;20489;-74
2022/11/12 07:43:17;;;;;;;47.33;6.80;;;7.70;37.00;;;;;;5042117;28;20456;-75
2022/11/12 07:45:42;;;;;;;80.37;11.93;;;7.60;36.80;;;;;;5042542;28;20551;-75
2022/11/12 07:48:08;;;;;;;30.20;7.67;;;7.50;36.70;;;;;;5039415;28;20201;-75
2022/11/12 07:50:33;;;;;;;39.40;8.30;;;7.40;37.00;;;;;;5041105;28;20221;-75
2022/11/12 07:52:59;;;;;;;21.13;8.37;;;7.20;34.50;;;;;;5042024;28;20212;-75
2022/11/12 07:55:24;;;;;;;52.40;9.00;;;7.20;36.70;;;;;;5049937;28;20170;-75
2022/11/12 07:57:50;;;;;;;51.90;9.00;;;7.20;36.70;;;;;;5046745;28;20172;-75
2022/11/12 08:00:16;;;;;;;31.77;9.10;;;7.20;36.80;;;;;;5042877;28;20177;-75
2022/11/12 08:02:41;;;;;;;34.33;10.00;;;7.40;34.60;;;;;;5046493;28;20675;-75
2022/11/12 08:05:07;;;;;;;29.30;7.90;;;7.40;37.00;;;;;;5048996;28;20418;-76
2022/11/12 08:07:32;;;;;;;28.83;7.87;;;7.40;36.70;;;;;;5046450;28;20215;-75
2022/11/12 08:09:58;;;;;;;40.70;8.40;;;7.40;36.80;;;;;;5040933;28;20178;-75
2022/11/12 08:12:23;;;;;;;54.63;10.07;;;7.50;36.90;;;;;;5049799;28;20188;-77
2022/11/12 08:14:49;;;;;;;62.03;9.50;;;7.60;36.90;;;;;;5045594;28;20651;-76
2022/11/12 08:17:14;;;;;;;79.83;12.43;;;7.60;36.90;;;;;;5048425;28;20177;-73
2022/11/12 08:19:40;;;;;;;49.70;11.93;;;7.60;36.80;;;;;;5043373;28;20177;-74
2022/11/12 08:22:05;;;;;;;73.00;11.30;;;7.80;31.20;;;;;;5039259;28;20212;-76
2022/11/12 08:24:31;;;;;;;41.57;10.50;;;7.70;28.50;;;;;;5046081;28;20197;-75
2022/11/12 08:26:56;;;;;;;34.57;9.63;;;7.70;28.50;;;;;;5043445;28;20178;-76
2022/11/12 08:29:22;;;;;;;31.47;8.00;;;7.80;29.20;;;;;;5040279;28;20184;-74
2022/11/12 08:31:48;;;;;;;28.50;9.43;;;7.90;31.10;;;;;;5043796;28;20190;-75
2022/11/12 08:34:13;;;;;;;73.83;9.10;;;8.00;28.10;;;;;;5048817;28;20197;-75
2022/11/12 08:36:39;;;;;;;63.77;8.23;;;8.10;22.50;;;;;;5044684;28;20599;-75
2022/11/12 08:39:06;;;;;;;90.20;9.33;;;8.20;22.80;;;;;;5040873;28;20189;-76
2022/11/12 08:41:32;;;;;;;55.90;8.63;;;8.30;20.40;;;;;;5039342;28;20272;-75
2022/11/12 08:43:58;;;;;;;46.13;8.97;;;8.30;19.70;;;;;;5044935;28;20453;-75
2022/11/12 08:46:23;;;;;;;38.47;8.80;;;8.40;18.80;;;;;;5042158;28;20447;-75
2022/11/12 08:48:49;;;;;;;28.03;8.57;;;8.50;18.10;;;;;;5032852;28;20660;-75
2022/11/12 08:51:14;;;;;;;36.60;8.97;;;8.60;19.30;;;;;;5048678;28;20189;-75
2022/11/12 08:53:40;;;;;;;43.83;8.60;;;8.60;14.40;;;;;;5045882;28;20287;-76
2022/11/12 08:56:05;;;;;;;30.83;9.23;;;8.70;16.70;;;;;;5047666;28;20181;-74
2022/11/12 08:58:31;;;;;;;31.00;9.10;;;8.70;18.40;;;;;;5040253;28;20257;-75
2022/11/12 09:01:03;;;;;;;46.47;10.47;;;8.80;16.30;;;;;;5047342;28;20173;-74
2022/11/12 09:03:28;;;;;;;24.33;12.83;;;8.80;18.00;;;;;;5036696;28;20206;-75
2022/11/12 09:05:54;;;;;;;25.60;12.33;;;8.90;19.60;;;;;;5045880;28;20493;-75
2022/11/12 09:08:23;;;;;;;15.07;9.83;;;9.00;22.00;;;;;;5046901;28;20185;-75
2022/11/12 09:10:49;;;;;;;17.70;11.20;;;9.10;18.40;;;;;;5044034;28;20185;-74
2022/11/12 09:13:17;;;;;;;16.13;9.50;;;9.30;18.50;;;;;;5044876;28;20466;-74
2022/11/12 09:15:43;;;;;;;14.37;9.13;;;9.40;16.00;;;;;;5043213;28;20934;-74
2022/11/12 09:18:14;;;;;;;21.73;11.97;;;10.10;10.20;;;;;;5033949;28;20470;-75
2022/11/12 09:20:40;;;;;;;18.33;12.80;;;9.60;10.70;;;;;;5049057;28;20829;-75
2022/11/12 09:23:14;;;;;;;18.37;10.93;;;9.60;10.10;;;;;;5050338;28;20431;-75
2022/11/12 09:25:40;;;;;;;17.10;10.37;;;9.70;7.00;;;;;;5049670;28;20824;-74
2022/11/12 09:28:14;;;;;;;17.27;9.80;;;9.70;5.20;;;;;;5042618;28;20488;-74
2022/11/12 09:30:48;;;;;;;18.13;10.00;;;9.80;4.70;;;;;;5044225;28;20243;-74
2022/11/12 09:33:15;;;;;;;13.00;8.90;;;9.80;1.00;;;;;;5043933;28;21033;-74
2022/11/12 09:35:42;;;;;;;15.27;10.83;;;9.80;2.10;;;;;;5041207;28;21329;-73
2022/11/12 09:38:08;;;;;;;20.83;9.20;;;9.80;1.00;;;;;;5035975;28;20522;-74
2022/11/12 09:40:54;;;;;;;13.27;9.63;;;9.80;1.00;;;;;;5043131;28;20518;-73
2022/11/12 09:43:32;;;;;;;13.17;8.93;;;9.80;1.00;;;;;;5044238;28;20201;-73
2022/11/12 09:46:21;;;;;;;12.90;8.80;;;9.80;1.00;;;;;;5037514;28;20517;-73
2022/11/12 09:48:55;;;;;;;11.57;7.73;;;9.90;1.00;;;;;;5038281;28;20497;-73
2022/11/12 09:51:26;;;;;;;12.10;8.67;;;10.00;1.00;;;;;;5048882;28;20404;-74
2022/11/12 09:53:55;;;;;;;14.03;8.90;;;9.80;1.00;;;;;;5048233;28;20471;-73
2022/11/12 09:56:21;;;;;;;12.20;8.80;;;9.90;1.00;;;;;;5049649;28;20440;-73
2022/11/12 09:58:48;;;;;;;15.10;9.23;;;9.90;1.00;;;;;;5042997;28;20478;-73
2022/11/12 10:01:18;;;;;;;13.80;8.63;;;9.80;1.00;;;;;;5050428;28;20226;-73
2022/11/12 10:03:52;;;;;;;11.87;8.00;;;9.70;1.00;;;;;;5047611;28;20458;-72
2022/11/12 10:06:23;;;;;;;12.00;8.57;;;9.80;1.00;;;;;;5045677;28;20439;-72
2022/11/12 10:09:08;;;;;;;13.43;9.20;;;9.80;1.00;;;;;;5051627;28;20444;-71
2022/11/12 10:18:19;;;;;;;10.53;7.57;;;9.80;1.00;;;;;;5051435;28;21380;-71
2022/11/12 10:21:03;;;;;;;13.30;7.97;;;9.80;1.00;;;;;;5049802;28;20431;-73
2022/11/12 10:23:40;;;;;;;12.80;9.20;;;9.70;1.00;;;;;;5053506;28;21044;-71
2022/11/12 10:26:17;;;;;;;12.43;8.30;;;9.70;1.00;;;;;;5047258;28;20514;-71
2022/11/12 10:28:51;;;;;;;12.23;8.60;;;9.90;1.00;;;;;;5046927;28;20444;-71
2022/11/12 10:31:19;;;;;;;14.90;8.50;;;10.00;1.00;;;;;;5052759;28;20414;-73
2022/11/12 10:33:45;;;;;;;12.30;8.57;;;10.00;1.00;;;;;;5048487;28;20470;-71
2022/11/12 10:36:32;;;;;;;15.30;9.90;;;10.00;1.00;;;;;;5043558;28;20420;-72
2022/11/12 10:38:58;;;;;;;11.67;8.30;;;10.10;1.00;;;;;;5050760;28;20399;-72
2022/11/12 10:41:32;;;;;;;11.97;8.73;;;10.20;1.00;;;;;;5047799;28;20542;-72
2022/11/12 10:43:59;;;;;;;15.97;10.13;;;10.30;1.00;;;;;;5051173;28;20435;-72
2022/11/12 10:46:35;;;;;;;12.60;8.93;;;10.40;1.00;;;;;;5040902;28;20431;-72
2022/11/12 10:49:04;;;;;;;10.60;8.30;;;10.50;1.00;;;;;;5050245;28;20430;-71
2022/11/12 10:51:35;;;;;;;13.10;9.00;;;10.50;1.00;;;;;;5051302;28;20809;-72
2022/11/12 10:54:35;;;;;;;16.53;10.27;;;10.60;1.00;;;;;;5050866;28;20927;-71
2022/11/12 10:57:22;;;;;;;14.27;8.50;;;10.70;1.00;;;;;;5035285;28;20454;-73
2022/11/12 11:00:25;;;;;;;10.93;7.60;;;10.80;1.00;;;;;;5050878;28;20465;-73
2022/11/12 11:02:54;;;;;;;12.53;8.60;;;10.60;1.00;;;;;;5040940;28;20467;-72
2022/11/12 11:05:30;;;;;;;10.57;7.57;;;10.70;1.00;;;;;;5050058;28;20439;-73
2022/11/12 11:07:56;;;;;;;11.30;8.60;;;10.70;1.00;;;;;;5042933;28;21199;-74
2022/11/12 11:10:32;;;;;;;14.10;8.97;;;10.80;1.00;;;;;;5039913;28;20432;-72
2022/11/12 11:13:27;;;;;;;10.57;7.90;;;10.70;1.00;;;;;;5047459;28;20991;-72
2022/11/12 11:16:05;;;;;;;13.70;8.43;;;10.70;1.00;;;;;;5050830;28;20423;-72
2022/11/12 11:18:37;;;;;;;11.53;7.97;;;10.70;1.00;;;;;;5047792;28;20439;-72
2022/11/12 11:21:27;;;;;;;10.43;8.43;;;10.60;1.00;;;;;;5043922;28;20411;-72
2022/11/12 11:24:26;;;;;;;11.23;8.67;;;10.60;1.00;;;;;;5041028;28;20452;-72
2022/11/12 11:27:06;;;;;;;11.20;8.20;;;10.70;1.00;;;;;;5051311;28;20415;-72
2022/11/12 11:29:50;;;;;;;10.47;7.90;;;10.70;1.00;;;;;;5049234;28;20473;-71
2022/11/12 11:32:44;;;;;;;10.47;7.67;;;10.60;1.00;;;;;;5046235;28;21267;-72
2022/11/12 11:35:15;;;;;;;12.90;9.00;;;10.60;1.00;;;;;;5041829;28;20473;-72
2022/11/12 11:37:51;;;;;;;14.00;9.60;;;10.60;1.00;;;;;;5050163;28;20425;-72
2022/11/12 11:40:28;;;;;;;11.13;8.53;;;10.70;1.00;;;;;;5045154;28;20431;-72
2022/11/12 11:43:04;;;;;;;11.60;8.93;;;10.80;1.00;;;;;;5050361;28;20404;-72
2022/11/12 11:45:48;;;;;;;11.40;8.60;;;10.80;1.00;;;;;;5046488;28;20550;-72
2022/11/12 11:48:16;;;;;;;16.10;10.43;;;10.70;1.00;;;;;;5041982;28;20432;-72
2022/11/12 11:51:01;;;;;;;84.90;53.87;;;10.60;1.00;;;;;;5046152;28;20421;-74
2022/11/12 11:53:34;;;;;;;13.60;9.60;;;10.70;1.00;;;;;;5047190;28;20479;-74
2022/11/12 11:56:06;;;;;;;59.77;37.67;;;11.00;1.00;;;;;;5048531;28;20436;-75
2022/11/12 11:59:02;;;;;;;43.73;27.87;;;11.30;1.00;;;;;;5043104;28;20498;-76
2022/11/12 12:01:50;;;;;;;45.00;26.97;;;11.50;1.00;;;;;;5047058;28;20423;-75
2022/11/12 12:04:48;;;;;;;20.77;12.90;;;11.60;1.00;;;;;;5034522;28;20459;-74
2022/11/12 12:07:29;;;;;;;15.30;9.70;;;11.50;1.00;;;;;;5040333;28;20420;-73
2022/11/12 12:10:04;;;;;;;15.20;9.13;;;11.20;1.00;;;;;;5040607;28;20432;-74
2022/11/12 12:13:06;;;;;;;16.97;10.57;;;11.00;1.00;;;;;;5046655;28;20506;-74
2022/11/12 12:15:48;;;;;;;19.50;12.20;;;11.00;1.00;;;;;;5045687;28;20471;-74
2022/11/12 12:18:33;;;;;;;17.40;10.83;;;11.00;1.00;;;;;;5043469;28;20424;-74
2022/11/12 12:21:11;;;;;;;22.40;12.50;;;11.10;1.00;;;;;;5050485;28;20945;-73
2022/11/12 12:23:43;;;;;;;24.67;12.07;;;11.20;1.00;;;;;;5045592;28;20969;-74
2022/11/12 12:26:17;;;;;;;17.63;11.60;;;11.30;1.00;;;;;;5049536;28;20416;-74
2022/11/12 12:28:49;;;;;;;37.67;16.40;;;11.10;1.00;;;;;;5044704;28;20993;-74
2022/11/12 12:31:18;;;;;;;24.77;13.90;;;10.90;1.00;;;;;;5051093;28;20432;-74
2022/11/12 12:33:58;;;;;;;24.27;13.60;;;10.90;1.00;;;;;;5042267;28;21005;-74
2022/11/12 12:36:35;;;;;;;24.40;12.20;;;10.90;1.00;;;;;;5048572;28;20845;-74
2022/11/12 12:39:14;;;;;;;19.27;11.43;;;10.90;1.00;;;;;;5043410;28;20502;-73
2022/11/12 12:42:11;;;;;;;20.70;13.13;;;10.70;1.00;;;;;;5046885;28;20423;-73
2022/11/12 12:45:00;;;;;;;17.87;11.67;;;10.60;1.00;;;;;;5050810;28;20416;-74
2022/11/12 12:47:28;;;;;;;14.97;10.57;;;10.50;1.00;;;;;;5043976;28;20440;-74
2022/11/12 12:49:56;;;;;;;14.90;10.20;;;10.60;1.00;;;;;;5043818;28;20459;-74
2022/11/12 12:52:21;;;;;;;15.20;10.30;;;10.50;1.00;;;;;;5045729;28;20443;-74
2022/11/12 12:54:47;;;;;;;15.30;10.97;;;10.50;1.00;;;;;;5049793;28;20452;-74
2022/11/12 12:57:33;;;;;;;18.43;11.43;;;10.40;1.00;;;;;;5046638;28;20200;-74
2022/11/12 13:00:30;;;;;;;21.53;12.63;;;10.40;1.00;;;;;;5050403;28;20711;-74
2022/11/12 13:02:55;;;;;;;24.07;13.90;;;10.50;1.00;;;;;;5042803;28;20840;-74
2022/11/12 13:05:24;;;;;;;27.23;14.70;;;10.40;1.00;;;;;;5049158;28;20447;-74
2022/11/12 13:07:51;;;;;;;25.77;15.00;;;10.30;1.00;;;;;;5046822;28;20181;-74
2022/11/12 13:10:46;;;;;;;25.53;15.43;;;10.20;1.00;;;;;;5046798;28;20493;-73
2022/11/12 13:13:17;;;;;;;36.33;19.23;;;10.20;1.00;;;;;;5037217;28;20502;-74
2022/11/12 13:15:48;;;;;;;25.00;15.23;;;10.20;1.00;;;;;;5050347;28;20404;-73
2022/11/12 13:18:36;;;;;;;24.03;14.30;;;10.10;1.00;;;;;;5041352;28;20847;-74
2022/11/12 13:21:15;;;;;;;26.07;14.80;;;10.00;1.00;;;;;;5040767;28;20416;-73
2022/11/12 13:24:07;;;;;;;41.63;19.07;;;10.00;1.00;;;;;;5044762;28;20546;-74
2022/11/12 13:26:38;;;;;;;27.00;13.77;;;10.00;1.00;;;;;;5038326;28;20927;-73